createdAt,value
2022-09-06T00:00:05.101Z,10.00
2022-09-06T00:01:24.414Z,9.97
2022-09-06T00:02:32.093Z,9.97
2022-09-06T00:03:33.862Z,9.97
2022-09-06T00:04:35.898Z,9.96
2022-09-06T00:05:38.347Z,9.96
2022-09-06T00:06:40.041Z,9.94
2022-09-06T00:07:41.930Z,9.93
2022-09-06T00:08:45.510Z,9.92
2022-09-06T00:09:47.173Z,9.92
2022-09-06T00:11:00.375Z,9.90
2022-09-06T00:12:03.032Z,9.88
2022-09-06T00:13:08.058Z,9.87
2022-09-06T00:14:09.803Z,9.85
2022-09-06T00:15:11.830Z,9.84
2022-09-06T00:16:17.182Z,9.85
2022-09-06T00:17:19.663Z,9.85
2022-09-06T00:18:22.824Z,9.85
2022-09-06T00:19:24.690Z,9.85
2022-09-06T00:20:27.437Z,9.85
2022-09-06T00:21:31.046Z,9.86
2022-09-06T00:22:32.706Z,9.88
2022-09-06T00:23:34.491Z,9.89
2022-09-06T00:24:37.255Z,9.90
2022-09-06T00:25:38.998Z,9.91
2022-09-06T00:26:40.916Z,9.93
2022-09-06T00:27:42.612Z,9.94
2022-09-06T00:28:44.797Z,9.95
2022-09-06T00:29:46.477Z,9.96
2022-09-06T00:30:48.234Z,9.97
2022-09-06T00:31:50.001Z,9.97
2022-09-06T00:32:52.958Z,9.98
2022-09-06T00:33:54.661Z,9.99
2022-09-06T00:34:56.347Z,10.00
2022-09-06T00:36:01.293Z,10.00
2022-09-06T00:37:03.077Z,10.01
2022-09-06T00:38:04.750Z,10.01
2022-09-06T00:39:06.509Z,10.02
2022-09-06T00:40:08.961Z,10.01
2022-09-06T00:41:14.021Z,10.01
2022-09-06T00:42:15.706Z,10.00
2022-09-06T00:43:17.405Z,9.98
2022-09-06T00:44:19.594Z,9.97
2022-09-06T00:45:21.794Z,9.97
2022-09-06T00:46:28.823Z,9.97
2022-09-06T00:47:31.001Z,9.97
2022-09-06T00:48:34.705Z,9.98
2022-09-06T00:49:50.788Z,9.97
2022-09-06T00:50:57.492Z,9.97
2022-09-06T00:52:07.827Z,9.97
2022-09-06T00:53:10.367Z,9.98
2022-09-06T00:54:12.171Z,9.98
2022-09-06T00:55:14.825Z,9.97
2022-09-06T00:56:16.749Z,9.97
2022-09-06T00:57:19.013Z,9.97
2022-09-06T00:58:21.523Z,9.97
2022-09-06T00:59:27.213Z,9.96
2022-09-06T01:00:28.894Z,9.95
2022-09-06T01:01:30.872Z,9.95
2022-09-06T01:02:32.782Z,9.94
2022-09-06T01:03:37.159Z,9.92
2022-09-06T01:04:42.777Z,9.92
2022-09-06T01:05:57.000Z,9.92
2022-09-06T01:07:22.681Z,9.91
2022-09-06T01:08:48.203Z,9.91
2022-09-06T01:10:20.595Z,9.90
2022-09-06T01:11:45.523Z,9.87
2022-09-06T01:13:01.205Z,9.86
2022-09-06T01:14:11.882Z,9.83
2022-09-06T01:15:33.909Z,9.81
2022-09-06T01:17:01.783Z,9.79
2022-09-06T01:18:15.288Z,9.78
2022-09-06T01:19:44.697Z,9.78
2022-09-06T01:21:04.925Z,9.78
2022-09-06T01:22:47.772Z,9.79
2022-09-06T01:24:21.311Z,9.80
2022-09-06T01:25:42.871Z,9.79
2022-09-06T01:27:25.662Z,9.79
2022-09-06T01:28:46.004Z,9.78
2022-09-06T01:29:54.180Z,9.78
2022-09-06T01:31:11.661Z,9.78
2022-09-06T01:32:27.819Z,9.77
2022-09-06T01:33:43.431Z,9.76
2022-09-06T01:34:54.038Z,9.76
2022-09-06T01:36:03.122Z,9.75
2022-09-06T01:37:14.257Z,9.73
2022-09-06T01:38:17.152Z,9.71
2022-09-06T01:39:29.490Z,9.70
2022-09-06T01:40:34.990Z,9.68
2022-09-06T01:41:36.775Z,9.67
2022-09-06T01:42:42.290Z,9.66
2022-09-06T01:43:49.307Z,9.65
2022-09-06T01:45:12.564Z,9.63
2022-09-06T01:46:26.824Z,9.62
2022-09-06T01:47:38.565Z,9.60
2022-09-06T01:49:04.161Z,9.59
2022-09-06T01:50:28.196Z,9.58
2022-09-06T01:51:47.900Z,9.56
2022-09-06T01:53:34.442Z,9.55
2022-09-06T01:55:03.178Z,9.55
2022-09-06T01:56:20.665Z,9.53
2022-09-06T01:57:44.569Z,9.52
2022-09-06T01:59:06.050Z,9.50
2022-09-06T02:00:14.949Z,9.47
2022-09-06T02:01:42.530Z,9.46
2022-09-06T02:03:14.968Z,9.43
2022-09-06T02:04:32.032Z,9.40
2022-09-06T02:05:51.829Z,9.38
2022-09-06T02:07:06.084Z,9.36
2022-09-06T02:08:23.913Z,9.35
2022-09-06T02:09:32.435Z,9.31
2022-09-06T02:10:47.849Z,9.29
2022-09-06T02:11:55.402Z,9.28
2022-09-06T02:13:02.003Z,9.27
2022-09-06T02:14:14.732Z,9.25
2022-09-06T02:15:26.510Z,9.24
2022-09-06T02:16:33.039Z,9.24
2022-09-06T02:17:45.427Z,9.23
2022-09-06T02:18:59.067Z,9.23
2022-09-06T02:20:15.033Z,9.22
2022-09-06T02:21:25.125Z,9.21
2022-09-06T02:22:32.988Z,9.19
2022-09-06T02:23:40.389Z,9.17
2022-09-06T02:24:46.938Z,9.15
2022-09-06T02:25:55.782Z,9.12
2022-09-06T02:26:58.064Z,9.10
2022-09-06T02:27:59.897Z,9.09
2022-09-06T02:29:02.180Z,9.10
2022-09-06T02:30:06.130Z,9.09
2022-09-06T02:31:19.443Z,9.08
2022-09-06T02:32:26.684Z,9.07
2022-09-06T02:33:33.353Z,9.04
2022-09-06T02:34:38.802Z,9.04
2022-09-06T02:35:52.854Z,9.02
2022-09-06T02:36:55.302Z,9.01
2022-09-06T02:37:57.311Z,9.00
2022-09-06T02:39:02.137Z,8.99
2022-09-06T02:40:04.224Z,8.98
2022-09-06T02:41:07.951Z,8.97
2022-09-06T02:42:12.972Z,8.96
2022-09-06T02:43:14.676Z,8.95
2022-09-06T02:44:16.567Z,8.96
2022-09-06T02:45:18.400Z,8.96
2022-09-06T02:46:20.354Z,8.96
2022-09-06T02:47:22.082Z,8.97
2022-09-06T02:48:23.893Z,8.96
2022-09-06T02:49:25.697Z,8.96
2022-09-06T02:50:28.002Z,8.96
2022-09-06T02:51:29.824Z,8.95
2022-09-06T02:52:31.536Z,8.93
2022-09-06T02:53:33.809Z,8.92
2022-09-06T02:54:35.543Z,8.92
2022-09-06T02:55:38.126Z,8.91
2022-09-06T02:56:39.890Z,8.89
2022-09-06T02:57:41.565Z,8.88
2022-09-06T02:58:43.717Z,8.87
2022-09-06T02:59:46.254Z,8.86
2022-09-06T03:00:48.238Z,8.84
2022-09-06T03:01:49.971Z,8.82
2022-09-06T03:02:51.682Z,8.81
2022-09-06T03:03:53.425Z,8.78
2022-09-06T03:04:55.084Z,8.78
2022-09-06T03:05:56.870Z,8.77
2022-09-06T03:06:58.533Z,8.77
2022-09-06T03:08:00.540Z,8.77
2022-09-06T03:09:02.249Z,8.75
2022-09-06T03:10:04.520Z,8.76
2022-09-06T03:11:06.370Z,8.76
2022-09-06T03:12:08.132Z,8.75
2022-09-06T03:13:09.820Z,8.75
2022-09-06T03:14:11.587Z,8.71
2022-09-06T03:15:16.267Z,8.72
2022-09-06T03:16:20.111Z,8.71
2022-09-06T03:17:22.225Z,8.69
2022-09-06T03:18:29.825Z,8.67
2022-09-06T03:19:31.505Z,8.65
2022-09-06T03:20:37.003Z,8.63
2022-09-06T03:21:38.976Z,8.62
2022-09-06T03:22:41.558Z,8.60
2022-09-06T03:23:43.358Z,8.59
2022-09-06T03:24:45.028Z,8.58
2022-09-06T03:25:46.882Z,8.58
2022-09-06T03:26:48.648Z,8.57
2022-09-06T03:27:50.368Z,8.56
2022-09-06T03:28:52.066Z,8.56
2022-09-06T03:29:53.749Z,8.56
2022-09-06T03:30:55.641Z,8.55
2022-09-06T03:31:57.360Z,8.54
2022-09-06T03:33:02.562Z,8.54
2022-09-06T03:34:09.077Z,8.54
2022-09-06T03:35:12.600Z,8.53
2022-09-06T03:36:15.706Z,8.54
2022-09-06T03:37:19.392Z,8.52
2022-09-06T03:38:23.391Z,8.50
2022-09-06T03:39:25.419Z,8.47
2022-09-06T03:40:27.552Z,8.46
2022-09-06T03:41:29.255Z,8.45
2022-09-06T03:42:30.925Z,8.44
2022-09-06T03:43:32.929Z,8.41
2022-09-06T03:44:34.623Z,8.39
2022-09-06T03:45:36.323Z,8.38
2022-09-06T03:46:38.342Z,8.36
2022-09-06T03:47:40.272Z,8.35
2022-09-06T03:48:42.196Z,8.36
2022-09-06T03:49:45.302Z,8.35
2022-09-06T03:50:49.530Z,8.35
2022-09-06T03:51:52.299Z,8.34
2022-09-06T03:52:53.976Z,8.35
2022-09-06T03:53:55.804Z,8.32
2022-09-06T03:54:57.967Z,8.30
2022-09-06T03:55:59.792Z,8.27
2022-09-06T03:57:01.652Z,8.24
2022-09-06T03:58:03.363Z,8.21
2022-09-06T03:59:05.195Z,8.20
2022-09-06T04:00:07.583Z,8.19
2022-09-06T04:01:13.390Z,8.19
2022-09-06T04:02:15.870Z,8.18
2022-09-06T04:03:20.187Z,8.17
2022-09-06T04:04:22.012Z,8.15
2022-09-06T04:05:23.720Z,8.14
2022-09-06T04:06:25.431Z,8.15
2022-09-06T04:07:27.138Z,8.16
2022-09-06T04:08:29.841Z,8.15
2022-09-06T04:09:31.637Z,8.14
2022-09-06T04:10:33.891Z,8.15
2022-09-06T04:11:35.723Z,8.15
2022-09-06T04:12:37.438Z,8.14
2022-09-06T04:13:39.171Z,8.14
2022-09-06T04:14:40.967Z,8.13
2022-09-06T04:15:46.759Z,8.13
2022-09-06T04:16:50.029Z,8.14
2022-09-06T04:17:51.749Z,8.15
2022-09-06T04:18:53.532Z,8.17
2022-09-06T04:19:55.301Z,8.18
2022-09-06T04:20:57.652Z,8.18
2022-09-06T04:21:59.377Z,8.17
2022-09-06T04:23:01.132Z,8.17
2022-09-06T04:24:03.023Z,8.17
2022-09-06T04:25:05.767Z,8.18
2022-09-06T04:26:07.751Z,8.17
2022-09-06T04:27:09.472Z,8.18
2022-09-06T04:28:11.135Z,8.18
2022-09-06T04:29:12.980Z,8.18
2022-09-06T04:30:14.837Z,8.18
2022-09-06T04:31:16.534Z,8.17
2022-09-06T04:32:18.188Z,8.15
2022-09-06T04:33:20.749Z,8.15
2022-09-06T04:34:22.425Z,8.15
2022-09-06T04:35:24.293Z,8.16
2022-09-06T04:36:25.993Z,8.18
2022-09-06T04:37:27.705Z,8.21
2022-09-06T04:38:34.427Z,8.22
2022-09-06T04:39:36.194Z,8.24
2022-09-06T04:40:38.151Z,8.25
2022-09-06T04:41:40.195Z,8.28
2022-09-06T04:42:41.889Z,8.29
2022-09-06T04:43:43.574Z,8.30
2022-09-06T04:44:45.236Z,8.34
2022-09-06T04:45:47.556Z,8.37
2022-09-06T04:46:49.320Z,8.40
2022-09-06T04:47:51.541Z,8.43
2022-09-06T04:48:55.430Z,8.45
2022-09-06T04:49:57.292Z,8.48
2022-09-06T04:50:59.078Z,8.50
2022-09-06T04:52:00.763Z,8.54
2022-09-06T04:53:02.525Z,8.58
2022-09-06T04:54:04.206Z,8.62
2022-09-06T04:55:06.500Z,8.65
2022-09-06T04:56:16.053Z,8.70
2022-09-06T04:57:17.716Z,8.73
2022-09-06T04:58:19.427Z,8.76
2022-09-06T04:59:21.131Z,8.79
2022-09-06T05:00:22.841Z,8.82
2022-09-06T05:01:26.340Z,8.85
2022-09-06T05:02:28.301Z,8.88
2022-09-06T05:03:29.986Z,8.90
2022-09-06T05:04:31.790Z,8.95
2022-09-06T05:05:33.491Z,8.99
2022-09-06T05:06:35.469Z,9.03
2022-09-06T05:07:37.228Z,9.08
2022-09-06T05:08:41.026Z,9.14
2022-09-06T05:09:42.724Z,9.18
2022-09-06T05:10:44.465Z,9.23
2022-09-06T05:11:46.457Z,9.28
2022-09-06T05:12:50.253Z,9.33
2022-09-06T05:13:51.963Z,9.36
2022-09-06T05:14:53.719Z,9.39
2022-09-06T05:15:55.813Z,9.44
2022-09-06T05:16:57.685Z,9.47
2022-09-06T05:18:06.768Z,9.49
2022-09-06T05:19:08.459Z,9.52
2022-09-06T05:20:11.058Z,9.55
2022-09-06T05:21:12.820Z,9.58
2022-09-06T05:22:14.694Z,9.61
2022-09-06T05:23:16.350Z,9.64
2022-09-06T05:24:18.120Z,9.67
2022-09-06T05:25:19.845Z,9.70
2022-09-06T05:26:21.526Z,9.74
2022-09-06T05:27:23.341Z,9.78
2022-09-06T05:28:25.151Z,9.80
2022-09-06T05:29:30.486Z,9.84
2022-09-06T05:30:32.413Z,9.88
2022-09-06T05:31:35.409Z,9.93
2022-09-06T05:32:37.208Z,9.97
2022-09-06T05:33:39.203Z,10.00
2022-09-06T05:34:40.920Z,10.03
2022-09-06T05:35:42.572Z,10.08
2022-09-06T05:36:45.444Z,10.13
2022-09-06T05:37:47.191Z,10.17
2022-09-06T05:38:50.754Z,10.19
2022-09-06T05:39:52.614Z,10.21
2022-09-06T05:40:54.362Z,10.23
2022-09-06T05:41:56.106Z,10.26
2022-09-06T05:42:57.894Z,10.26
2022-09-06T05:44:00.234Z,10.28
2022-09-06T05:45:02.356Z,10.32
2022-09-06T05:46:04.204Z,10.36
2022-09-06T05:47:06.177Z,10.40
2022-09-06T05:48:08.649Z,10.44
2022-09-06T05:49:10.488Z,10.48
2022-09-06T05:50:12.509Z,10.51
2022-09-06T05:51:14.170Z,10.56
2022-09-06T05:52:17.290Z,10.61
2022-09-06T05:53:18.977Z,10.65
2022-09-06T05:54:21.049Z,10.68
2022-09-06T05:55:22.893Z,10.73
2022-09-06T05:56:24.822Z,10.77
2022-09-06T05:57:26.893Z,10.80
2022-09-06T05:58:28.684Z,10.82
2022-09-06T05:59:30.746Z,10.86
2022-09-06T06:00:32.452Z,10.90
2022-09-06T06:01:34.189Z,10.94
2022-09-06T06:02:35.985Z,10.99
2022-09-06T06:03:38.918Z,11.04
2022-09-06T06:04:40.746Z,11.08
2022-09-06T06:05:47.668Z,11.12
2022-09-06T06:06:49.571Z,11.16
2022-09-06T06:07:51.249Z,11.20
2022-09-06T06:08:53.652Z,11.23
2022-09-06T06:09:55.414Z,11.24
2022-09-06T06:11:01.894Z,11.28
2022-09-06T06:12:04.897Z,11.31
2022-09-06T06:13:06.575Z,11.35
2022-09-06T06:14:09.030Z,11.41
2022-09-06T06:15:11.233Z,11.46
2022-09-06T06:16:15.939Z,11.47
2022-09-06T06:17:17.700Z,11.56
2022-09-06T06:18:19.542Z,11.58
2022-09-06T06:19:21.317Z,11.63
2022-09-06T06:20:23.133Z,11.66
2022-09-06T06:21:25.866Z,11.70
2022-09-06T06:22:27.871Z,11.73
2022-09-06T06:23:29.566Z,11.76
2022-09-06T06:24:31.380Z,11.81
2022-09-06T06:25:33.153Z,11.85
2022-09-06T06:26:36.573Z,11.91
2022-09-06T06:27:38.294Z,11.96
2022-09-06T06:28:40.964Z,12.01
2022-09-06T06:29:42.649Z,12.07
2022-09-06T06:30:44.458Z,12.12
2022-09-06T06:31:46.295Z,12.17
2022-09-06T06:32:48.053Z,12.21
2022-09-06T06:33:50.728Z,12.25
2022-09-06T06:34:52.446Z,12.29
2022-09-06T06:36:02.631Z,12.31
2022-09-06T06:37:04.345Z,12.36
2022-09-06T06:38:06.041Z,12.40
2022-09-06T06:39:09.157Z,12.44
2022-09-06T06:40:11.025Z,12.48
2022-09-06T06:41:16.503Z,12.54
2022-09-06T06:42:18.173Z,12.58
2022-09-06T06:43:27.306Z,12.63
2022-09-06T06:44:29.456Z,12.68
2022-09-06T06:45:31.572Z,12.73
2022-09-06T06:46:36.368Z,12.79
2022-09-06T06:47:38.052Z,12.83
2022-09-06T06:48:41.354Z,12.89
2022-09-06T06:49:43.043Z,12.93
2022-09-06T06:50:44.856Z,12.94
2022-09-06T06:51:47.538Z,12.96
2022-09-06T06:52:49.346Z,13.00
2022-09-06T06:53:51.582Z,13.06
2022-09-06T06:54:53.229Z,13.12
2022-09-06T06:55:55.380Z,13.16
2022-09-06T06:56:57.028Z,13.18
2022-09-06T06:58:02.438Z,13.21
2022-09-06T06:59:06.983Z,13.23
2022-09-06T07:00:10.949Z,13.27
2022-09-06T07:01:13.899Z,13.29
2022-09-06T07:02:17.575Z,13.31
2022-09-06T07:03:19.390Z,13.35
2022-09-06T07:04:21.414Z,13.40
2022-09-06T07:08:13.150Z,13.62
2022-09-06T07:09:15.873Z,13.67
2022-09-06T07:10:33.518Z,13.75
2022-09-06T07:11:35.660Z,13.83
2022-09-06T07:12:37.349Z,13.87
2022-09-06T07:13:39.430Z,13.91
2022-09-06T07:14:41.131Z,13.96
2022-09-06T07:15:42.791Z,14.00
2022-09-06T07:16:45.547Z,14.03
2022-09-06T07:17:47.231Z,14.09
2022-09-06T07:18:53.680Z,14.15
2022-09-06T07:22:40.217Z,14.25
2022-09-06T07:25:06.248Z,14.27
2022-09-06T07:26:14.490Z,14.27
2022-09-06T07:28:37.899Z,14.33
2022-09-06T07:29:39.544Z,14.37
2022-09-06T07:30:42.164Z,14.40
2022-09-06T07:33:06.294Z,14.56
2022-09-06T07:34:07.971Z,14.60
2022-09-06T07:35:09.870Z,14.64
2022-09-06T07:36:11.570Z,14.68
2022-09-06T07:37:13.382Z,14.73
2022-09-06T07:38:15.081Z,14.81
2022-09-06T07:39:16.758Z,14.87
2022-09-06T07:40:18.473Z,14.95
2022-09-06T07:41:20.265Z,15.01
2022-09-06T07:42:22.122Z,15.10
2022-09-06T07:43:25.391Z,15.17
2022-09-06T07:44:28.806Z,15.25
2022-09-06T07:45:30.472Z,15.34
2022-09-06T07:46:32.212Z,15.40
2022-09-06T07:48:55.713Z,15.47
2022-09-06T07:51:21.561Z,15.56
2022-09-06T07:53:57.932Z,15.72
2022-09-06T07:55:04.591Z,15.80
2022-09-06T07:56:08.573Z,15.87
2022-09-06T07:57:12.092Z,15.94
2022-09-06T07:58:14.083Z,16.02
2022-09-06T07:59:15.987Z,16.09
2022-09-06T08:00:19.721Z,16.15
2022-09-06T08:01:34.377Z,16.21
2022-09-06T08:02:36.060Z,16.27
2022-09-06T08:03:37.754Z,16.32
2022-09-06T08:04:41.046Z,16.38
2022-09-06T08:09:47.964Z,16.57
2022-09-06T08:10:51.241Z,16.61
2022-09-06T08:11:53.024Z,16.66
2022-09-06T08:12:57.601Z,16.70
2022-09-06T08:14:01.398Z,16.77
2022-09-06T08:15:03.322Z,16.83
2022-09-06T08:16:08.026Z,16.89
2022-09-06T08:17:09.761Z,16.96
2022-09-06T08:18:12.010Z,17.02
2022-09-06T08:19:13.817Z,17.08
2022-09-06T08:20:16.794Z,17.12
2022-09-06T08:21:19.547Z,17.14
2022-09-06T08:22:21.363Z,17.19
2022-09-06T08:23:23.279Z,17.25
2022-09-06T08:24:25.007Z,17.34
2022-09-06T08:25:26.832Z,17.42
2022-09-06T08:26:30.756Z,17.48
2022-09-06T08:27:32.374Z,17.52
2022-09-06T08:28:34.186Z,17.55
2022-09-06T08:29:35.920Z,17.59
2022-09-06T08:30:37.710Z,17.61
2022-09-06T08:31:44.414Z,17.62
2022-09-06T08:32:46.124Z,17.62
2022-09-06T08:33:47.779Z,17.65
2022-09-06T08:34:49.717Z,17.68
2022-09-06T08:35:56.256Z,17.72
2022-09-06T08:36:57.949Z,17.73
2022-09-06T08:37:59.627Z,17.74
2022-09-06T08:39:04.890Z,17.78
2022-09-06T08:40:07.172Z,17.81
2022-09-06T08:41:14.567Z,17.85
2022-09-06T08:42:16.305Z,17.89
2022-09-06T08:43:21.090Z,17.92
2022-09-06T08:45:56.470Z,17.96
2022-09-06T08:47:02.366Z,18.04
2022-09-06T08:48:04.177Z,18.13
2022-09-06T08:49:07.031Z,18.20
2022-09-06T08:50:10.586Z,18.25
2022-09-06T08:51:58.039Z,18.29
2022-09-06T08:53:17.623Z,18.41
2022-09-06T08:54:35.691Z,18.54
2022-09-06T08:55:48.107Z,18.63
2022-09-06T08:57:13.513Z,18.71
2022-09-06T08:58:36.658Z,18.74
2022-09-06T08:59:40.878Z,18.75
2022-09-06T09:00:52.311Z,18.78
2022-09-06T09:02:04.584Z,18.84
2022-09-06T09:03:16.819Z,18.94
2022-09-06T09:04:24.459Z,19.03
2022-09-06T09:05:33.040Z,19.07
2022-09-06T09:06:35.808Z,19.10
2022-09-06T09:07:50.338Z,19.12
2022-09-06T09:09:06.028Z,19.13
2022-09-06T09:10:32.580Z,19.20
2022-09-06T09:11:36.245Z,19.29
2022-09-06T09:12:46.637Z,19.36
2022-09-06T09:13:55.629Z,19.40
2022-09-06T09:15:06.435Z,19.43
2022-09-06T09:16:08.364Z,19.48
2022-09-06T09:17:20.351Z,19.50
2022-09-06T09:18:28.047Z,19.48
2022-09-06T09:19:33.437Z,19.48
2022-09-06T09:20:35.158Z,19.49
2022-09-06T09:21:40.160Z,19.54
2022-09-06T09:22:42.161Z,19.57
2022-09-06T09:23:54.894Z,19.60
2022-09-06T09:25:00.009Z,19.62
2022-09-06T09:26:10.370Z,19.65
2022-09-06T09:27:16.774Z,19.69
2022-09-06T09:28:24.597Z,19.71
2022-09-06T09:29:29.476Z,19.77
2022-09-06T09:30:49.969Z,19.82
2022-09-06T09:31:56.075Z,19.79
2022-09-06T09:32:57.852Z,19.78
2022-09-06T09:34:02.411Z,19.77
2022-09-06T09:35:19.220Z,19.77
2022-09-06T09:36:21.804Z,19.79
2022-09-06T09:38:52.875Z,19.75
2022-09-06T09:39:58.240Z,19.74
2022-09-06T09:41:05.399Z,19.73
2022-09-06T09:42:08.286Z,19.68
2022-09-06T09:43:26.504Z,19.72
2022-09-06T09:44:29.940Z,19.74
2022-09-06T09:45:31.852Z,19.79
2022-09-06T09:46:39.702Z,19.88
2022-09-06T09:47:41.466Z,19.96
2022-09-06T09:49:04.674Z,20.02
2022-09-06T09:50:22.521Z,20.06
2022-09-06T09:51:27.715Z,20.06
2022-09-06T09:52:32.023Z,20.05
2022-09-06T09:53:33.749Z,20.07
2022-09-06T09:54:38.693Z,20.11
2022-09-06T09:55:41.916Z,20.11
2022-09-06T09:56:54.606Z,20.02
2022-09-06T09:57:56.664Z,19.87
2022-09-06T09:59:00.558Z,19.82
2022-09-06T10:00:02.694Z,19.85
2022-09-06T10:01:35.697Z,19.91
2022-09-06T10:02:40.217Z,20.03
2022-09-06T10:05:17.889Z,20.11
2022-09-06T10:07:53.698Z,20.16
2022-09-06T10:08:55.740Z,20.16
2022-09-06T10:10:00.992Z,20.17
2022-09-06T10:11:02.708Z,20.16
2022-09-06T10:12:05.067Z,20.13
2022-09-06T10:13:09.316Z,20.12
2022-09-06T10:14:13.599Z,20.12
2022-09-06T10:15:40.050Z,20.13
2022-09-06T10:16:45.456Z,20.20
2022-09-06T10:17:47.140Z,20.23
2022-09-06T10:18:52.710Z,20.27
2022-09-06T10:19:54.833Z,20.33
2022-09-06T10:21:02.332Z,20.40
2022-09-06T10:22:20.689Z,20.51
2022-09-06T10:25:00.926Z,20.53
2022-09-06T10:26:10.011Z,20.56
2022-09-06T10:27:12.620Z,20.61
2022-09-06T10:28:33.426Z,20.68
2022-09-06T10:29:48.021Z,20.81
2022-09-06T10:31:07.920Z,20.91
2022-09-06T10:32:32.662Z,21.00
2022-09-06T10:34:10.552Z,21.05
2022-09-06T10:35:30.059Z,21.05
2022-09-06T10:37:00.355Z,20.98
2022-09-06T10:38:19.561Z,20.98
2022-09-06T10:39:50.376Z,21.02
2022-09-06T10:40:58.961Z,21.10
2022-09-06T10:42:15.780Z,21.15
2022-09-06T10:43:21.011Z,21.22
2022-09-06T10:44:49.029Z,21.32
2022-09-06T10:46:09.399Z,21.51
2022-09-06T10:47:16.183Z,21.69
2022-09-06T10:48:24.002Z,21.81
2022-09-06T10:49:28.521Z,21.94
2022-09-06T10:50:54.285Z,22.11
2022-09-06T10:52:03.594Z,22.35
2022-09-06T10:53:33.643Z,22.49
2022-09-06T10:54:40.980Z,22.68
2022-09-06T10:55:50.745Z,22.73
2022-09-06T11:00:14.444Z,22.82
2022-09-06T11:01:28.496Z,22.75
2022-09-06T11:04:29.690Z,22.83
2022-09-06T11:05:41.182Z,22.95
2022-09-06T11:06:47.686Z,23.04
2022-09-06T11:09:38.475Z,23.14
2022-09-06T11:10:48.131Z,23.21
2022-09-06T11:12:33.017Z,23.32
2022-09-06T11:13:35.007Z,23.42
2022-09-06T11:14:39.264Z,23.48
2022-09-06T11:16:10.730Z,23.54
2022-09-06T11:17:28.670Z,23.66
2022-09-06T11:18:44.459Z,23.73
2022-09-06T11:20:05.895Z,23.84
2022-09-06T11:21:19.761Z,23.88
2022-09-06T11:22:30.437Z,23.81
2022-09-06T11:23:44.741Z,23.80
2022-09-06T11:25:22.624Z,23.87
2022-09-06T11:26:26.830Z,24.05
2022-09-06T11:27:40.350Z,24.19
2022-09-06T11:29:13.567Z,24.35
2022-09-06T11:30:18.117Z,24.57
2022-09-06T11:33:11.895Z,24.88
2022-09-06T11:34:30.471Z,25.05
2022-09-06T11:35:34.839Z,25.15
2022-09-06T11:36:52.830Z,25.13
2022-09-06T11:38:02.683Z,24.99
2022-09-06T11:39:08.831Z,24.91
2022-09-06T11:40:27.378Z,24.98
2022-09-06T11:41:38.490Z,25.00
2022-09-06T11:42:46.223Z,25.10
2022-09-06T11:43:51.647Z,25.16
2022-09-06T11:45:21.189Z,25.23
2022-09-06T11:46:43.096Z,25.34
2022-09-06T11:47:53.083Z,25.33
2022-09-06T11:49:04.781Z,25.32
2022-09-06T11:50:24.330Z,25.37
2022-09-06T11:51:34.382Z,25.47
2022-09-06T11:53:07.041Z,25.61
2022-09-06T11:54:14.963Z,25.83
2022-09-06T11:55:22.906Z,25.99
2022-09-06T11:56:57.089Z,26.13
2022-09-06T11:58:03.308Z,26.21
2022-09-06T11:59:17.661Z,26.25
2022-09-06T12:00:23.873Z,26.29
2022-09-06T12:01:25.466Z,26.32
2022-09-06T12:02:35.592Z,26.36
2022-09-06T12:04:06.515Z,26.43
2022-09-06T12:05:16.689Z,26.54
2022-09-06T12:06:32.217Z,26.66
2022-09-06T12:07:36.857Z,26.80
2022-09-06T12:08:38.722Z,26.88
2022-09-06T12:09:43.894Z,26.93
2022-09-06T12:10:57.297Z,26.93
2022-09-06T12:12:01.271Z,26.90
2022-09-06T12:13:41.280Z,26.88
2022-09-06T12:14:48.179Z,26.99
2022-09-06T12:15:55.448Z,27.05
2022-09-06T12:17:04.783Z,27.13
2022-09-06T12:18:06.557Z,27.26
2022-09-06T12:19:08.337Z,27.28
2022-09-06T12:20:11.236Z,27.30
2022-09-06T12:21:39.346Z,27.35
2022-09-06T12:22:46.739Z,27.38
2022-09-06T12:23:48.719Z,27.44
2022-09-06T12:24:53.866Z,27.49
2022-09-06T12:25:56.970Z,27.56
2022-09-06T12:27:31.881Z,27.67
2022-09-06T12:28:34.976Z,27.63
2022-09-06T12:29:37.050Z,27.31
2022-09-06T12:30:48.078Z,26.89
2022-09-06T12:31:56.913Z,26.38
2022-09-06T12:33:02.372Z,25.98
2022-09-06T12:34:21.271Z,25.61
2022-09-06T12:36:55.617Z,25.66
2022-09-06T12:38:03.673Z,25.89
2022-09-06T12:39:12.085Z,26.10
2022-09-06T12:40:14.333Z,26.17
2022-09-06T12:41:16.191Z,26.17
2022-09-06T12:42:19.383Z,25.97
2022-09-06T12:43:21.929Z,26.02
2022-09-06T12:44:31.709Z,26.17
2022-09-06T12:45:33.561Z,26.45
2022-09-06T12:46:36.940Z,26.71
2022-09-06T12:47:42.306Z,26.96
2022-09-06T12:49:00.422Z,27.23
2022-09-06T12:50:17.983Z,27.55
2022-09-06T12:51:20.848Z,27.76
2022-09-06T12:52:22.503Z,27.85
2022-09-06T12:53:25.414Z,28.01
2022-09-06T12:54:28.864Z,28.10
2022-09-06T12:55:37.027Z,28.05
2022-09-06T12:56:38.787Z,27.90
2022-09-06T12:57:48.528Z,27.65
2022-09-06T12:58:51.353Z,27.45
2022-09-06T12:59:57.023Z,27.42
2022-09-06T13:01:08.498Z,27.46
2022-09-06T13:02:20.610Z,27.08
2022-09-06T13:03:50.606Z,26.57
2022-09-06T13:05:01.455Z,26.49
2022-09-06T13:06:06.349Z,26.42
2022-09-06T13:07:14.681Z,26.46
2022-09-06T13:08:29.552Z,26.59
2022-09-06T13:09:33.335Z,26.79
2022-09-06T13:10:39.879Z,26.86
2022-09-06T13:11:51.493Z,26.97
2022-09-06T13:12:57.049Z,27.18
2022-09-06T13:13:59.307Z,27.45
2022-09-06T13:15:11.857Z,27.65
2022-09-06T13:16:20.316Z,27.81
2022-09-06T13:17:28.675Z,27.96
2022-09-06T13:18:39.621Z,28.08
2022-09-06T13:19:42.575Z,28.22
2022-09-06T13:20:44.285Z,28.37
2022-09-06T13:21:47.264Z,28.51
2022-09-06T13:22:51.332Z,28.68
2022-09-06T13:23:53.521Z,28.85
2022-09-06T13:24:56.310Z,28.98
2022-09-06T13:25:58.305Z,29.00
2022-09-06T13:27:00.136Z,29.01
2022-09-06T13:28:03.241Z,29.02
2022-09-06T13:29:16.766Z,29.10
2022-09-06T13:30:39.957Z,29.28
2022-09-06T13:31:46.756Z,29.35
2022-09-06T13:32:48.536Z,29.25
2022-09-06T13:33:59.942Z,29.27
2022-09-06T13:35:03.772Z,29.42
2022-09-06T13:36:11.610Z,29.60
2022-09-06T13:37:14.106Z,29.76
2022-09-06T13:38:31.098Z,29.80
2022-09-06T13:39:41.983Z,29.68
2022-09-06T13:41:09.597Z,29.55
2022-09-06T13:42:27.514Z,29.34
2022-09-06T13:43:29.387Z,29.33
2022-09-06T13:44:34.733Z,29.33
2022-09-06T13:45:36.702Z,29.27
2022-09-06T13:46:38.487Z,29.29
2022-09-06T13:47:40.213Z,29.33
2022-09-06T13:48:44.536Z,29.41
2022-09-06T13:49:47.236Z,29.52
2022-09-06T13:50:48.984Z,29.56
2022-09-06T13:51:53.468Z,29.67
2022-09-06T13:52:55.259Z,29.71
2022-09-06T13:54:09.125Z,29.72
2022-09-06T13:55:16.610Z,29.81
2022-09-06T13:56:18.298Z,29.90
2022-09-06T13:57:24.211Z,29.98
2022-09-06T13:58:27.792Z,29.99
2022-09-06T13:59:31.486Z,29.91
2022-09-06T14:00:33.404Z,29.94
2022-09-06T14:01:35.492Z,29.89
2022-09-06T14:02:37.919Z,29.75
2022-09-06T14:03:42.182Z,29.50
2022-09-06T14:04:43.886Z,29.17
2022-09-06T14:05:45.542Z,28.90
2022-09-06T14:06:48.870Z,28.73
2022-09-06T14:07:50.549Z,28.63
2022-09-06T14:09:08.459Z,28.58
2022-09-06T14:10:11.620Z,28.56
2022-09-06T14:11:16.738Z,28.58
2022-09-06T14:12:18.371Z,28.60
2022-09-06T14:13:21.096Z,28.70
2022-09-06T14:14:22.929Z,28.85
2022-09-06T14:15:25.130Z,29.04
2022-09-06T14:16:27.062Z,29.24
2022-09-06T14:17:28.830Z,29.38
2022-09-06T14:18:31.327Z,29.44
2022-09-06T14:19:33.067Z,29.57
2022-09-06T14:20:34.876Z,29.69
2022-09-06T14:21:36.598Z,29.69
2022-09-06T14:22:38.489Z,29.68
2022-09-06T14:23:40.357Z,29.69
2022-09-06T14:24:41.995Z,29.78
2022-09-06T14:25:43.657Z,29.87
2022-09-06T14:26:45.306Z,29.82
2022-09-06T14:27:48.861Z,29.70
2022-09-06T14:28:51.369Z,29.54
2022-09-06T14:29:53.087Z,29.27
2022-09-06T14:30:55.078Z,28.90
2022-09-06T14:31:56.859Z,28.47
2022-09-06T14:32:59.729Z,28.15
2022-09-06T14:34:02.695Z,27.90
2022-09-06T14:35:05.829Z,27.77
2022-09-06T14:36:10.490Z,27.77
2022-09-06T14:37:13.665Z,27.83
2022-09-06T14:38:15.946Z,27.92
2022-09-06T14:39:17.813Z,27.99
2022-09-06T14:40:19.545Z,28.07
2022-09-06T14:41:21.261Z,28.07
2022-09-06T14:42:24.607Z,27.90
2022-09-06T14:43:26.297Z,27.64
2022-09-06T14:44:28.277Z,27.47
2022-09-06T14:45:29.942Z,27.35
2022-09-06T14:46:31.909Z,27.20
2022-09-06T14:47:33.671Z,27.00
2022-09-06T14:48:40.338Z,26.75
2022-09-06T14:49:43.759Z,26.52
2022-09-06T14:50:45.388Z,26.23
2022-09-06T14:51:47.177Z,25.85
2022-09-06T14:52:48.821Z,25.53
2022-09-06T14:53:54.114Z,25.29
2022-09-06T14:54:55.801Z,25.07
2022-09-06T14:56:01.942Z,24.89
2022-09-06T14:57:03.802Z,24.69
2022-09-06T14:58:05.434Z,24.58
2022-09-06T14:59:09.131Z,24.47
2022-09-06T15:00:11.521Z,24.38
2022-09-06T15:01:20.370Z,24.34